• Join FlightAware (Why Join?)
  • Login
  • US Flag 
04:56PM EST


 

Airport Tracker/Info


-or-


 

Live Flight TrackerFlight Track Log ✈ VH-NWZ ✈ 04-Sep-2013 ✈ YBCG / OOL - YBCG / OOL

Flight Track Log - Related Links

Times and Time Zones

All times are in EDT time to prevent confusion due to time zone crossing. See the VH-NWZ flight status page for this flight to view local times or setup timezone preferences in your user account.

Time Position Orientation Groundspeed Altitude Reporting Facility
EDT Latitude Longitude Course Direction KTS MPH feet Rate Location/Type
11:56PM -28.1925 153.4975 201° Southwest 74 85 1,600  Level Aus ATC (RADAR)
11:59PM -28.2576 153.4695 201° Southwest 97 112 1,400 -60 Descending Aus ATC (RADAR)
12:00AM -28.2868 153.4763 168° South 96 110 1,500  Climbing Aus ATC (RADAR)
12:02AM -28.3248 153.5021 149° Southeast 94 108 1,500 180 Level Aus ATC (RADAR)
12:04AM -28.3720 153.5344 149° Southeast 73 84 2,300 120 Climbing Aus ATC (RADAR)
12:05AM -28.3996 153.5385 173° South 94 108 2,100 -180 Descending Aus ATC (RADAR)
12:07AM -28.4431 153.5462 171° South 83 96 1,900 -60 Descending Aus ATC (RADAR)
12:09AM -28.4900 153.5466 180° South 69 79 1,900  Level Aus ATC (RADAR)
12:11AM -28.5093 153.5500 171° South 53 61 1,900  Level Aus ATC (RADAR)
12:12AM -28.5300 153.5536 171° South 120 138 2,000 60 Climbing Aus ATC (RADAR)
12:14AM -28.4856 153.5511 357° North 108 124 2,200  Climbing Aus ATC (RADAR)
12:15AM -28.4485 153.5549 North 121 139 2,100 -240 Descending Aus ATC (RADAR)
12:16AM -28.4118 153.5544 359° North 122 140 1,700 -240 Descending Aus ATC (RADAR)
12:18AM -28.3624 153.5764 21° North 114 131 1,500 -120 Descending Aus ATC (RADAR)
12:19AM -28.3260 153.5743 357° North 122 140 1,500  Level Aus ATC (RADAR)
12:20AM -28.2806 153.5825 North 122 140 1,500  Level Aus ATC (RADAR)
12:21AM -28.2441 153.5861 North 127 146 1,600  Climbing Aus ATC (RADAR)
12:22AM -28.2214 153.5818 351° North 125 144 1,500 -120 Descending Aus ATC (RADAR)
12:22AM -28.1984 153.5763 348° North 126 145 1,500 60 Level Aus ATC (RADAR)
12:23AM -28.1739 153.5643 337° Northwest 128 147 1,600 -240 Climbing Aus ATC (RADAR)
12:24AM -28.1516 153.5382 314° West 128 147 1,200 -360 Descending Aus ATC (RADAR)
12:25AM -28.1370 153.4971 292° West 90 104 800 -420 Descending Aus ATC (RADAR)
12:26AM -28.1469 153.4945 193° South 53 61 400 -480 Descending Aus ATC (RADAR)
12:28AM -28.1620 153.5048 149° Southeast 52 60 -360 Descending Aus ATC (RADAR)